createdAt,value
2023-05-01T00:00:57.504Z,7.42
2023-05-01T00:01:58.277Z,7.41
2023-05-01T00:02:58.240Z,7.42
2023-05-01T00:03:57.704Z,7.42
2023-05-01T00:04:57.517Z,7.37
2023-05-01T00:05:57.508Z,7.37
2023-05-01T00:06:57.437Z,7.38
2023-05-01T00:07:57.451Z,7.41
2023-05-01T00:08:57.407Z,7.40
2023-05-01T00:09:57.880Z,7.41
2023-05-01T00:10:57.411Z,7.40
2023-05-01T00:11:57.420Z,7.42
2023-05-01T00:12:57.341Z,7.44
2023-05-01T00:13:57.373Z,7.44
2023-05-01T00:14:57.319Z,7.44
2023-05-01T00:15:57.378Z,7.42
2023-05-01T00:16:57.384Z,7.37
2023-05-01T00:17:57.386Z,7.35
2023-05-01T00:18:57.292Z,7.32
2023-05-01T00:19:57.540Z,7.32
2023-05-01T00:20:57.254Z,7.34
2023-05-01T00:21:57.282Z,7.34
2023-05-01T00:22:57.229Z,7.35
2023-05-01T00:23:57.236Z,7.35
2023-05-01T00:24:57.247Z,7.35
2023-05-01T00:25:57.212Z,7.35
2023-05-01T00:26:57.198Z,7.37
2023-05-01T00:27:57.192Z,7.37
2023-05-01T00:28:57.162Z,7.38
2023-05-01T00:29:57.467Z,7.40
2023-05-01T00:30:57.160Z,7.38
2023-05-01T00:31:57.242Z,7.40
2023-05-01T00:32:57.159Z,7.41
2023-05-01T00:33:57.131Z,7.41
2023-05-01T00:34:57.102Z,7.41
2023-05-01T00:35:57.120Z,7.40
2023-05-01T00:36:58.554Z,7.40
2023-05-01T00:37:57.092Z,7.35
2023-05-01T00:38:57.065Z,7.35
2023-05-01T00:39:57.271Z,7.31
2023-05-01T00:40:57.048Z,7.27
2023-05-01T00:41:57.048Z,7.27
2023-05-01T00:42:57.002Z,7.26
2023-05-01T00:43:57.023Z,7.27
2023-05-01T00:44:57.945Z,7.29
2023-05-01T00:45:57.052Z,7.34
2023-05-01T00:46:56.998Z,7.34
2023-05-01T00:47:57.082Z,7.32
2023-05-01T00:48:58.066Z,7.35
2023-05-01T00:49:57.261Z,7.35
2023-05-01T00:50:56.924Z,7.37
2023-05-01T00:51:56.956Z,7.35
2023-05-01T00:52:57.014Z,7.35
2023-05-01T00:53:56.939Z,7.37
2023-05-01T00:54:56.867Z,7.38
2023-05-01T00:55:56.893Z,7.40
2023-05-01T00:56:56.857Z,7.40
2023-05-01T00:57:56.894Z,7.40
2023-05-01T00:58:56.842Z,7.40
2023-05-01T00:59:57.006Z,7.38
2023-05-01T01:00:56.860Z,7.38
2023-05-01T01:01:56.839Z,7.38
2023-05-01T01:02:56.898Z,7.38
2023-05-01T01:03:56.881Z,7.38
2023-05-01T01:04:56.803Z,7.35
2023-05-01T01:05:56.841Z,7.32
2023-05-01T01:06:56.736Z,7.29
2023-05-01T01:07:56.775Z,7.26
2023-05-01T01:08:56.712Z,7.24
2023-05-01T01:09:57.001Z,7.22
2023-05-01T01:10:56.694Z,7.22
2023-05-01T01:11:56.701Z,7.19
2023-05-01T01:12:56.700Z,7.17
2023-05-01T01:13:56.705Z,7.17
2023-05-01T01:14:56.662Z,7.16
2023-05-01T01:15:56.709Z,7.13
2023-05-01T01:16:56.636Z,7.09
2023-05-01T01:17:56.702Z,7.07
2023-05-01T01:18:56.635Z,7.05
2023-05-01T01:19:56.919Z,7.04
2023-05-01T01:20:56.576Z,7.01
2023-05-01T01:21:56.602Z,6.99
2023-05-01T01:22:56.558Z,6.98
2023-05-01T01:23:56.584Z,6.97
2023-05-01T01:24:56.569Z,6.94
2023-05-01T01:25:56.548Z,6.90
2023-05-01T01:26:56.528Z,6.87
2023-05-01T01:27:56.544Z,6.84
2023-05-01T01:28:56.515Z,6.83
2023-05-01T01:29:56.828Z,6.81
2023-05-01T01:30:56.506Z,6.80
2023-05-01T01:31:56.513Z,6.77
2023-05-01T01:32:56.508Z,6.73
2023-05-01T01:33:56.481Z,6.72
2023-05-01T01:34:56.415Z,6.72
2023-05-01T01:35:56.712Z,6.72
2023-05-01T01:36:56.420Z,6.71
2023-05-01T01:37:56.418Z,6.69
2023-05-01T01:38:56.383Z,6.71
2023-05-01T01:39:56.675Z,6.68
2023-05-01T01:40:56.349Z,6.66
2023-05-01T01:41:56.372Z,6.65
2023-05-01T01:42:56.338Z,6.63
2023-05-01T01:43:56.373Z,6.63
2023-05-01T01:44:56.322Z,6.63
2023-05-01T01:45:56.437Z,6.62
2023-05-01T01:46:56.303Z,6.59
2023-05-01T01:47:56.368Z,6.58
2023-05-01T01:48:56.271Z,6.58
2023-05-01T01:49:56.532Z,6.59
2023-05-01T01:50:56.289Z,6.59
2023-05-01T01:51:56.224Z,6.61
2023-05-01T01:52:56.246Z,6.59
2023-05-01T01:53:56.228Z,6.59
2023-05-01T01:54:56.216Z,6.62
2023-05-01T01:55:56.194Z,6.62
2023-05-01T01:56:56.208Z,6.63
2023-05-01T01:57:56.404Z,6.62
2023-05-01T01:58:56.209Z,6.61
2023-05-01T01:59:56.463Z,6.61
2023-05-01T02:00:56.155Z,6.59
2023-05-01T02:01:56.168Z,6.58
2023-05-01T02:02:56.636Z,6.58
2023-05-01T02:03:56.147Z,6.54
2023-05-01T02:04:56.128Z,6.53
2023-05-01T02:05:56.099Z,6.51
2023-05-01T02:06:56.086Z,6.51
2023-05-01T02:07:56.059Z,6.50
2023-05-01T02:08:56.087Z,6.51
2023-05-01T02:09:56.316Z,6.48
2023-05-01T02:10:56.068Z,6.48
2023-05-01T02:11:56.005Z,6.47
2023-05-01T02:12:56.059Z,6.46
2023-05-01T02:13:56.002Z,6.46
2023-05-01T02:14:56.016Z,6.46
2023-05-01T02:15:55.994Z,6.44
2023-05-01T02:16:56.009Z,6.47
2023-05-01T02:17:56.001Z,6.48
2023-05-01T02:18:55.969Z,6.51
2023-05-01T02:19:56.167Z,6.51
2023-05-01T02:20:56.178Z,6.53
2023-05-01T02:21:55.907Z,6.50
2023-05-01T02:22:55.936Z,6.50
2023-05-01T02:23:55.887Z,6.48
2023-05-01T02:24:55.932Z,6.47
2023-05-01T02:25:55.850Z,6.47
2023-05-01T02:26:55.867Z,6.50
2023-05-01T02:27:55.860Z,6.48
2023-05-01T02:28:55.852Z,6.48
2023-05-01T02:29:55.973Z,6.50
2023-05-01T02:30:55.828Z,6.48
2023-05-01T02:31:55.870Z,6.48
2023-05-01T02:32:55.894Z,6.48
2023-05-01T02:33:55.795Z,6.47
2023-05-01T02:34:55.815Z,6.47
2023-05-01T02:35:55.744Z,6.47
2023-05-01T02:36:55.753Z,6.47
2023-05-01T02:37:55.735Z,6.46
2023-05-01T02:38:55.788Z,6.44
2023-05-01T02:39:55.935Z,6.43
2023-05-01T02:40:55.766Z,6.41
2023-05-01T02:41:55.686Z,6.38
2023-05-01T02:42:55.684Z,6.36
2023-05-01T02:43:55.653Z,6.33
2023-05-01T02:44:55.682Z,6.29
2023-05-01T02:45:55.671Z,6.28
2023-05-01T02:46:55.729Z,6.22
2023-05-01T02:47:55.639Z,6.22
2023-05-01T02:48:55.637Z,6.19
2023-05-01T02:49:55.817Z,6.21
2023-05-01T02:50:55.646Z,6.21
2023-05-01T02:51:55.580Z,6.21
2023-05-01T02:52:55.618Z,6.21
2023-05-01T02:53:55.553Z,6.21
2023-05-01T02:54:55.557Z,6.18
2023-05-01T02:55:55.544Z,6.16
2023-05-01T02:56:55.540Z,6.16
2023-05-01T02:57:55.520Z,6.16
2023-05-01T02:58:55.508Z,6.16
2023-05-01T02:59:55.641Z,6.16
2023-05-01T03:00:55.546Z,6.16
2023-05-01T03:01:55.461Z,6.14
2023-05-01T03:02:55.580Z,6.14
2023-05-01T03:03:55.470Z,6.16
2023-05-01T03:04:55.478Z,6.16
2023-05-01T03:05:55.439Z,6.13
2023-05-01T03:06:55.423Z,6.13
2023-05-01T03:07:55.397Z,6.10
2023-05-01T03:08:55.404Z,6.10
2023-05-01T03:09:55.682Z,6.09
2023-05-01T03:10:55.455Z,6.09
2023-05-01T03:11:55.371Z,6.10
2023-05-01T03:12:56.329Z,6.07
2023-05-01T03:13:55.357Z,6.04
2023-05-01T03:14:55.332Z,6.07
2023-05-01T03:15:55.399Z,6.04
2023-05-01T03:16:55.386Z,6.01
2023-05-01T03:17:55.380Z,6.03
2023-05-01T03:18:55.341Z,6.03
2023-05-01T03:19:55.493Z,6.01
2023-05-01T03:20:55.286Z,6.00
2023-05-01T03:21:55.269Z,6.01
2023-05-01T03:22:55.256Z,5.98
2023-05-01T03:23:56.202Z,5.95
2023-05-01T03:24:55.231Z,5.93
2023-05-01T03:25:55.253Z,5.93
2023-05-01T03:26:55.207Z,5.95
2023-05-01T03:27:55.441Z,5.95
2023-05-01T03:28:55.177Z,5.93
2023-05-01T03:29:55.511Z,5.92
2023-05-01T03:30:55.186Z,5.92
2023-05-01T03:31:55.182Z,5.92
2023-05-01T03:32:55.243Z,5.89
2023-05-01T03:33:55.094Z,5.91
2023-05-01T03:34:55.126Z,5.88
2023-05-01T03:35:55.101Z,5.88
2023-05-01T03:36:55.102Z,5.85
2023-05-01T03:37:55.050Z,5.85
2023-05-01T03:38:55.105Z,5.86
2023-05-01T03:39:55.288Z,5.85
2023-05-01T03:40:55.074Z,5.85
2023-05-01T03:41:55.011Z,5.86
2023-05-01T03:42:55.031Z,5.86
2023-05-01T03:43:54.981Z,5.85
2023-05-01T03:44:54.999Z,5.86
2023-05-01T03:45:55.969Z,5.82
2023-05-01T03:46:55.006Z,5.85
2023-05-01T03:47:54.996Z,5.85
2023-05-01T03:48:54.955Z,5.85
2023-05-01T03:49:55.179Z,5.82
2023-05-01T03:50:55.001Z,5.85
2023-05-01T03:51:54.924Z,5.83
2023-05-01T03:52:54.934Z,5.83
2023-05-01T03:53:54.876Z,5.82
2023-05-01T03:54:54.895Z,5.83
2023-05-01T03:55:54.857Z,5.83
2023-05-01T03:56:54.880Z,5.85
2023-05-01T03:57:54.871Z,5.83
2023-05-01T03:58:54.862Z,5.83
2023-05-01T03:59:55.214Z,5.83
2023-05-01T04:00:54.818Z,5.85
2023-05-01T04:01:54.820Z,5.85
2023-05-01T04:02:54.914Z,5.88
2023-05-01T04:03:54.905Z,5.86
2023-05-01T04:04:54.774Z,5.86
2023-05-01T04:05:54.752Z,5.86
2023-05-01T04:06:54.751Z,5.88
2023-05-01T04:07:54.743Z,5.86
2023-05-01T04:08:54.726Z,5.86
2023-05-01T04:09:55.000Z,5.88
2023-05-01T04:10:54.713Z,5.91
2023-05-01T04:11:54.690Z,5.89
2023-05-01T04:12:54.688Z,5.91
2023-05-01T04:13:54.661Z,5.88
2023-05-01T04:14:54.699Z,5.89
2023-05-01T04:15:54.690Z,5.92
2023-05-01T04:16:54.662Z,5.93
2023-05-01T04:17:54.643Z,5.92
2023-05-01T04:18:54.619Z,5.92
2023-05-01T04:19:54.829Z,5.95
2023-05-01T04:20:54.605Z,5.96
2023-05-01T04:21:54.568Z,5.98
2023-05-01T04:22:54.598Z,5.96
2023-05-01T04:23:54.543Z,5.98
2023-05-01T04:24:54.551Z,6.01
2023-05-01T04:25:54.536Z,6.01
2023-05-01T04:26:54.522Z,6.01
2023-05-01T04:27:54.501Z,6.03
2023-05-01T04:28:54.519Z,6.06
2023-05-01T04:29:55.000Z,6.04
2023-05-01T04:30:54.476Z,6.03
2023-05-01T04:31:54.559Z,6.03
2023-05-01T04:32:54.583Z,6.07
2023-05-01T04:33:54.426Z,6.06
2023-05-01T04:34:54.458Z,6.04
2023-05-01T04:35:54.401Z,6.06
2023-05-01T04:36:54.428Z,6.09
2023-05-01T04:37:54.388Z,6.14
2023-05-01T04:38:54.388Z,6.21
2023-05-01T04:39:54.538Z,6.28
2023-05-01T04:40:54.380Z,6.29
2023-05-01T04:41:54.357Z,6.32
2023-05-01T04:42:54.379Z,6.32
2023-05-01T04:43:54.308Z,6.32
2023-05-01T04:44:54.337Z,6.30
2023-05-01T04:45:54.300Z,6.29
2023-05-01T04:46:54.384Z,6.32
2023-05-01T04:47:54.304Z,6.29
2023-05-01T04:48:54.328Z,6.33
2023-05-01T04:49:54.519Z,6.35
2023-05-01T04:50:54.282Z,6.35
2023-05-01T04:51:54.232Z,6.38
2023-05-01T04:52:54.254Z,6.41
2023-05-01T04:53:54.204Z,6.44
2023-05-01T04:54:54.236Z,6.46
2023-05-01T04:55:54.198Z,6.50
2023-05-01T04:56:54.206Z,6.50
2023-05-01T04:57:54.147Z,6.50
2023-05-01T04:58:54.194Z,6.53
2023-05-01T04:59:54.336Z,6.56
2023-05-01T05:00:54.159Z,6.50
2023-05-01T05:01:55.203Z,6.50
2023-05-01T05:02:54.217Z,6.51
2023-05-01T05:03:54.230Z,6.54
2023-05-01T05:04:54.132Z,6.61
2023-05-01T05:05:54.093Z,6.63
2023-05-01T05:06:54.175Z,6.71
2023-05-01T05:07:54.034Z,6.77
2023-05-01T05:08:54.072Z,6.81
2023-05-01T05:09:54.186Z,6.86
2023-05-01T05:10:54.066Z,6.86
2023-05-01T05:11:54.029Z,6.89
2023-05-01T05:12:54.020Z,6.90
2023-05-01T05:13:54.012Z,6.90
2023-05-01T05:14:54.009Z,6.87
2023-05-01T05:15:53.971Z,6.90
2023-05-01T05:16:54.060Z,6.95
2023-05-01T05:17:56.391Z,6.99
2023-05-01T05:18:53.951Z,7.05
2023-05-01T05:19:53.948Z,7.13
2023-05-01T05:20:53.962Z,7.19
2023-05-01T05:21:53.893Z,7.23
2023-05-01T05:22:53.907Z,7.22
2023-05-01T05:23:53.871Z,7.27
2023-05-01T05:24:53.875Z,7.29
2023-05-01T05:25:53.863Z,7.35
2023-05-01T05:26:53.851Z,7.41
2023-05-01T05:27:53.836Z,7.50
2023-05-01T05:28:53.840Z,7.53
2023-05-01T05:29:53.849Z,7.58
2023-05-01T05:30:53.819Z,7.60
2023-05-01T05:31:53.812Z,7.62
2023-05-01T05:32:53.821Z,7.62
2023-05-01T05:33:53.754Z,7.67
2023-05-01T05:34:53.789Z,7.74
2023-05-01T05:35:53.720Z,7.75
2023-05-01T05:36:53.742Z,7.79
2023-05-01T05:37:53.682Z,7.81
2023-05-01T05:38:53.744Z,7.85
2023-05-01T05:39:53.819Z,7.92
2023-05-01T05:40:53.746Z,7.99
2023-05-01T05:41:53.676Z,8.03
2023-05-01T05:42:53.665Z,8.08
2023-05-01T05:43:53.679Z,8.10
2023-05-01T05:44:53.680Z,8.10
2023-05-01T05:45:53.641Z,8.10
2023-05-01T05:46:53.656Z,8.14
2023-05-01T05:47:53.631Z,8.14
2023-05-01T05:48:53.616Z,8.17
2023-05-01T05:49:53.832Z,8.20
2023-05-01T05:50:55.068Z,8.17
2023-05-01T05:51:53.577Z,8.08
2023-05-01T05:52:53.551Z,8.07
2023-05-01T05:53:53.532Z,8.10
2023-05-01T05:54:53.539Z,8.12
2023-05-01T05:55:53.700Z,8.17
2023-05-01T05:56:53.531Z,8.18
2023-05-01T05:57:53.478Z,8.20
2023-05-01T05:58:53.492Z,8.22
2023-05-01T05:59:53.720Z,8.26
2023-05-01T06:00:54.977Z,8.26
2023-05-01T06:01:53.453Z,8.29
2023-05-01T06:02:53.609Z,8.32
2023-05-01T06:03:54.144Z,8.36
2023-05-01T06:04:53.431Z,8.37
2023-05-01T06:05:53.489Z,8.40
2023-05-01T06:06:53.531Z,8.42
2023-05-01T06:07:53.404Z,8.40
2023-05-01T06:08:53.377Z,8.44
2023-05-01T06:09:53.511Z,8.45
2023-05-01T06:10:53.373Z,8.51
2023-05-01T06:11:54.853Z,8.57
2023-05-01T06:13:03.167Z,8.62
2023-05-01T06:13:54.338Z,8.62
2023-05-01T06:14:53.301Z,8.63
2023-05-01T06:15:53.425Z,8.66
2023-05-01T06:16:53.294Z,8.72
2023-05-01T06:17:53.375Z,8.79
2023-05-01T06:18:53.253Z,8.87
2023-05-01T06:19:53.301Z,8.94
2023-05-01T06:20:53.228Z,9.02
2023-05-01T06:21:53.253Z,9.04
2023-05-01T06:22:53.204Z,9.05
2023-05-01T06:23:53.219Z,9.10
2023-05-01T06:24:53.221Z,9.15
2023-05-01T06:25:53.201Z,9.16
2023-05-01T06:26:53.164Z,9.21
2023-05-01T06:27:53.177Z,9.27
2023-05-01T06:28:53.951Z,9.28
2023-05-01T06:29:54.869Z,9.32
2023-05-01T06:30:53.773Z,9.38
2023-05-01T06:31:53.284Z,9.42
2023-05-01T06:32:53.137Z,9.46
2023-05-01T06:33:53.109Z,9.50
2023-05-01T06:34:53.093Z,9.53
2023-05-01T06:35:54.563Z,9.53
2023-05-01T06:36:53.038Z,9.58
2023-05-01T06:37:53.055Z,9.56
2023-05-01T06:38:53.096Z,9.61
2023-05-01T06:39:53.104Z,9.60
2023-05-01T06:40:53.016Z,9.63
2023-05-01T06:41:53.082Z,9.66
2023-05-01T06:42:53.031Z,9.67
2023-05-01T06:43:52.994Z,9.64
2023-05-01T06:44:52.953Z,9.67
2023-05-01T06:45:52.961Z,9.70
2023-05-01T06:46:52.974Z,9.67
2023-05-01T06:47:53.003Z,9.63
2023-05-01T06:48:52.928Z,9.66
2023-05-01T06:49:52.934Z,9.70
2023-05-01T06:50:52.911Z,9.78
2023-05-01T06:51:54.375Z,9.79
2023-05-01T06:52:52.866Z,9.79
2023-05-01T06:53:54.390Z,9.79
2023-05-01T06:54:52.835Z,9.75
2023-05-01T06:55:52.854Z,9.75
2023-05-01T06:56:52.816Z,9.76
2023-05-01T06:57:52.813Z,9.82
2023-05-01T06:58:52.800Z,9.88
2023-05-01T06:59:52.808Z,9.94
2023-05-01T07:00:52.834Z,9.99
2023-05-01T07:01:52.864Z,10.04
2023-05-01T07:02:52.904Z,10.10
2023-05-01T07:03:52.858Z,10.15
2023-05-01T07:04:52.749Z,10.21
2023-05-01T07:05:52.752Z,10.25
2023-05-01T07:06:52.886Z,10.34
2023-05-01T07:08:00.847Z,10.40
2023-05-01T07:08:53.716Z,10.46
2023-05-01T07:09:52.788Z,10.53
2023-05-01T07:10:52.658Z,10.55
2023-05-01T07:11:52.868Z,10.60
2023-05-01T07:12:52.643Z,10.63
2023-05-01T07:13:52.669Z,10.70
2023-05-01T07:14:52.620Z,10.74
2023-05-01T07:15:54.591Z,10.77
2023-05-01T07:16:52.726Z,10.76
2023-05-01T07:17:52.780Z,10.80
2023-05-01T07:18:52.586Z,10.86
2023-05-01T07:19:52.585Z,10.91
2023-05-01T07:20:52.547Z,10.98
2023-05-01T07:21:52.576Z,11.02
2023-05-01T07:22:52.534Z,11.09
2023-05-01T07:23:52.572Z,11.14
2023-05-01T07:24:52.859Z,11.20
2023-05-01T07:25:52.526Z,11.29
2023-05-01T07:26:52.515Z,11.34
2023-05-01T07:27:52.487Z,11.43
2023-05-01T07:28:52.472Z,11.49
2023-05-01T07:29:52.510Z,11.54
2023-05-01T07:30:52.447Z,11.59
2023-05-01T07:31:52.490Z,11.67
2023-05-01T07:32:52.665Z,11.71
2023-05-01T07:33:54.158Z,11.78
2023-05-01T07:34:52.413Z,11.80
2023-05-01T07:35:52.408Z,11.87
2023-05-01T07:36:52.386Z,11.90
2023-05-01T07:37:52.368Z,11.93
2023-05-01T07:38:52.341Z,11.93
2023-05-01T07:39:52.359Z,11.97
2023-05-01T07:40:52.338Z,11.97
2023-05-01T07:41:52.358Z,12.04
2023-05-01T07:42:54.479Z,12.09
2023-05-01T07:43:52.311Z,12.13
2023-05-01T07:44:52.269Z,12.16
2023-05-01T07:45:52.329Z,12.21
2023-05-01T07:46:52.256Z,12.15
2023-05-01T07:47:52.388Z,12.12
2023-05-01T07:48:52.236Z,12.21
2023-05-01T07:49:52.262Z,12.27
2023-05-01T07:50:53.163Z,12.31
2023-05-01T07:51:52.218Z,12.39
2023-05-01T07:52:52.184Z,12.46
2023-05-01T07:53:52.201Z,12.54
2023-05-01T07:54:52.185Z,12.54
2023-05-01T07:55:52.166Z,12.54
2023-05-01T07:56:52.126Z,12.62
2023-05-01T07:57:52.147Z,12.64
2023-05-01T07:58:52.109Z,12.67
2023-05-01T07:59:52.123Z,12.75
2023-05-01T08:00:52.111Z,12.84
2023-05-01T08:01:52.150Z,12.89
2023-05-01T08:02:52.218Z,12.96
2023-05-01T08:03:52.192Z,13.02
2023-05-01T08:04:52.120Z,13.03
2023-05-01T08:05:52.060Z,13.04
2023-05-01T08:06:52.044Z,13.11
2023-05-01T08:07:52.043Z,13.18
2023-05-01T08:08:52.012Z,13.24
2023-05-01T08:09:52.033Z,13.32
2023-05-01T08:10:51.999Z,13.32
2023-05-01T08:11:51.974Z,13.37
2023-05-01T08:12:51.953Z,13.32
2023-05-01T08:13:51.993Z,13.33
2023-05-01T08:14:51.970Z,13.38
2023-05-01T08:15:51.947Z,13.43
2023-05-01T08:16:51.900Z,13.44
2023-05-01T08:17:51.935Z,13.41
2023-05-01T08:18:51.922Z,13.47
2023-05-01T08:19:51.915Z,13.49
2023-05-01T08:20:51.866Z,13.51
2023-05-01T08:21:51.875Z,13.55
2023-05-01T08:22:51.849Z,13.58
2023-05-01T08:23:51.905Z,13.63
2023-05-01T08:24:51.828Z,13.70
2023-05-01T08:25:51.821Z,13.79
2023-05-01T08:26:51.790Z,13.81
2023-05-01T08:27:51.810Z,13.81
2023-05-01T08:28:51.796Z,13.89
2023-05-01T08:29:51.798Z,13.91
2023-05-01T08:30:51.767Z,13.96
2023-05-01T08:31:51.962Z,13.99
2023-05-01T08:32:51.790Z,14.06
2023-05-01T08:33:51.745Z,14.13
2023-05-01T08:34:51.705Z,14.17
2023-05-01T08:35:51.731Z,14.25
2023-05-01T08:36:51.698Z,14.32
2023-05-01T08:37:51.705Z,14.35
2023-05-01T08:38:51.675Z,14.42
2023-05-01T08:39:51.669Z,14.44
2023-05-01T08:40:51.644Z,14.52
2023-05-01T08:41:51.660Z,14.64
2023-05-01T08:42:51.627Z,14.71
2023-05-01T08:43:52.605Z,14.78
2023-05-01T08:44:51.614Z,14.83
2023-05-01T08:45:51.644Z,14.88
2023-05-01T08:46:51.583Z,14.94
2023-05-01T08:47:51.652Z,15.01
2023-05-01T08:48:51.544Z,15.08
2023-05-01T08:49:51.562Z,15.12
2023-05-01T08:50:51.506Z,14.99
2023-05-01T08:51:51.564Z,14.94
2023-05-01T08:52:51.512Z,14.99
2023-05-01T08:53:51.517Z,15.03
2023-05-01T08:54:51.487Z,15.12
2023-05-01T08:55:51.523Z,15.23
2023-05-01T08:56:51.443Z,15.23
2023-05-01T08:57:51.467Z,15.23
2023-05-01T08:58:51.435Z,15.23
2023-05-01T08:59:51.459Z,15.24
2023-05-01T09:00:51.408Z,15.28
2023-05-01T09:01:51.479Z,15.30
2023-05-01T09:02:51.420Z,15.33
2023-05-01T09:03:51.490Z,15.38
2023-05-01T09:04:51.360Z,15.46
2023-05-01T09:05:51.378Z,15.51
2023-05-01T09:06:51.489Z,15.56
2023-05-01T09:07:51.364Z,15.63
2023-05-01T09:08:52.260Z,15.68
2023-05-01T09:09:51.353Z,15.74
2023-05-01T09:10:51.300Z,15.79
2023-05-01T09:11:51.297Z,15.79
2023-05-01T09:12:51.477Z,15.84
2023-05-01T09:13:51.284Z,15.89
2023-05-01T09:14:51.256Z,15.92
2023-05-01T09:15:51.297Z,15.93
2023-05-01T09:16:51.321Z,15.97
2023-05-01T09:17:51.306Z,16.03
2023-05-01T09:18:51.190Z,16.06
2023-05-01T09:19:51.247Z,16.04
2023-05-01T09:20:51.169Z,16.11
2023-05-01T09:21:51.200Z,16.14
2023-05-01T09:22:51.172Z,16.18
2023-05-01T09:23:51.148Z,16.26
2023-05-01T09:24:51.142Z,16.33
2023-05-01T09:25:52.045Z,16.41
2023-05-01T09:26:51.104Z,16.42
2023-05-01T09:27:52.086Z,16.50
2023-05-01T09:28:51.112Z,16.44
2023-05-01T09:29:51.097Z,16.31
2023-05-01T09:30:51.055Z,16.26
2023-05-01T09:31:51.123Z,16.25
2023-05-01T09:32:51.064Z,16.27
2023-05-01T09:33:51.066Z,16.27
2023-05-01T09:34:51.022Z,16.26
2023-05-01T09:35:51.041Z,16.25
2023-05-01T09:36:51.965Z,16.20
2023-05-01T09:37:51.003Z,16.14
2023-05-01T09:38:50.971Z,16.14
2023-05-01T09:39:51.018Z,16.16
2023-05-01T09:40:50.965Z,16.14
2023-05-01T09:41:51.013Z,16.00
2023-05-01T09:42:50.970Z,16.01
2023-05-01T09:43:50.987Z,16.03
2023-05-01T09:44:50.908Z,16.07
2023-05-01T09:45:51.012Z,16.16
2023-05-01T09:46:50.874Z,16.15
2023-05-01T09:47:50.961Z,16.15
2023-05-01T09:48:50.848Z,16.22
2023-05-01T09:49:50.861Z,16.30
2023-05-01T09:50:50.840Z,16.35
2023-05-01T09:51:50.862Z,16.41
2023-05-01T09:52:50.837Z,16.52
2023-05-01T09:53:50.817Z,16.55
2023-05-01T09:54:50.784Z,16.50
2023-05-01T09:55:50.803Z,16.53
2023-05-01T09:56:50.790Z,16.52
2023-05-01T09:57:50.784Z,16.55
2023-05-01T09:58:50.773Z,16.55
2023-05-01T09:59:50.777Z,16.53
2023-05-01T10:00:50.849Z,16.56
2023-05-01T10:01:51.007Z,16.56
2023-05-01T10:02:51.063Z,16.67
2023-05-01T10:03:50.909Z,16.70
2023-05-01T10:04:50.679Z,16.74
2023-05-01T10:05:50.710Z,16.71
2023-05-01T10:06:50.736Z,16.75
2023-05-01T10:07:50.669Z,16.80
2023-05-01T10:08:50.730Z,16.78
2023-05-01T10:09:50.668Z,16.89
2023-05-01T10:10:50.609Z,16.93
2023-05-01T10:11:50.639Z,16.89
2023-05-01T10:12:50.583Z,16.88
2023-05-01T10:13:50.594Z,16.90
2023-05-01T10:14:50.553Z,16.93
2023-05-01T10:15:50.615Z,17.03
2023-05-01T10:16:50.673Z,17.04
2023-05-01T10:17:50.596Z,17.10
2023-05-01T10:18:50.521Z,17.11
2023-05-01T10:19:50.543Z,17.17
2023-05-01T10:20:50.484Z,17.25
2023-05-01T10:21:50.515Z,17.33
2023-05-01T10:22:50.565Z,17.44
2023-05-01T10:23:50.453Z,17.48
2023-05-01T10:24:50.487Z,17.46
2023-05-01T10:25:50.438Z,17.48
2023-05-01T10:26:51.520Z,17.51
2023-05-01T10:27:50.421Z,17.59
2023-05-01T10:28:50.436Z,17.67
2023-05-01T10:29:50.377Z,17.69
2023-05-01T10:30:50.466Z,17.74
2023-05-01T10:31:50.473Z,17.81
2023-05-01T10:32:50.421Z,17.87
2023-05-01T10:33:50.380Z,17.92
2023-05-01T10:34:50.364Z,17.94
2023-05-01T10:35:50.342Z,17.94
2023-05-01T10:36:50.336Z,17.92
2023-05-01T10:37:50.320Z,17.88
2023-05-01T10:38:50.303Z,17.91
2023-05-01T10:39:50.310Z,17.94
2023-05-01T10:40:50.394Z,18.02
2023-05-01T10:41:50.242Z,18.02
2023-05-01T10:42:50.287Z,18.06
2023-05-01T10:43:50.238Z,18.02
2023-05-01T10:44:50.264Z,18.00
2023-05-01T10:45:50.317Z,18.02
2023-05-01T10:46:50.344Z,18.00
2023-05-01T10:47:50.175Z,18.00
2023-05-01T10:48:50.202Z,17.94
2023-05-01T10:49:50.181Z,17.92
2023-05-01T10:50:50.180Z,17.95
2023-05-01T10:51:50.159Z,17.97
2023-05-01T10:52:50.172Z,18.03
2023-05-01T10:53:50.125Z,18.06
2023-05-01T10:54:51.089Z,18.12
2023-05-01T10:55:50.360Z,18.12
2023-05-01T10:56:50.123Z,18.12
2023-05-01T10:57:50.060Z,18.10
2023-05-01T10:58:51.655Z,18.06
2023-05-01T10:59:50.050Z,18.10
2023-05-01T11:00:50.761Z,18.07
2023-05-01T11:01:50.070Z,18.12
2023-05-01T11:02:50.077Z,18.19
2023-05-01T11:03:49.996Z,18.29
2023-05-01T11:04:50.066Z,18.37
2023-05-01T11:05:50.019Z,18.47
2023-05-01T11:06:50.030Z,18.54
2023-05-01T11:07:49.956Z,18.62
2023-05-01T11:08:49.957Z,18.74
2023-05-01T11:09:49.935Z,18.86
2023-05-01T11:10:49.945Z,18.97
2023-05-01T11:11:49.989Z,19.05
2023-05-01T11:12:49.937Z,19.14
2023-05-01T11:13:49.912Z,19.17
2023-05-01T11:14:49.921Z,19.24
2023-05-01T11:15:49.903Z,19.31
2023-05-01T11:16:49.964Z,19.36
2023-05-01T11:17:49.955Z,19.42
2023-05-01T11:18:50.532Z,19.42
2023-05-01T11:19:49.818Z,19.47
2023-05-01T11:20:49.833Z,19.53
2023-05-01T11:21:49.831Z,19.61
2023-05-01T11:22:50.762Z,19.65
2023-05-01T11:23:49.769Z,19.66
2023-05-01T11:24:49.793Z,19.68
2023-05-01T11:25:49.761Z,19.73
2023-05-01T11:26:49.776Z,19.75
2023-05-01T11:27:49.746Z,19.66
2023-05-01T11:28:49.737Z,19.72
2023-05-01T11:29:49.734Z,19.73
2023-05-01T11:30:49.705Z,19.66
2023-05-01T11:31:49.713Z,19.63
2023-05-01T11:32:49.768Z,19.51
2023-05-01T11:33:49.648Z,19.46
2023-05-01T11:34:49.689Z,19.43
2023-05-01T11:35:49.652Z,19.40
2023-05-01T11:36:49.689Z,19.38
2023-05-01T11:37:49.616Z,19.46
2023-05-01T11:38:49.644Z,19.54
2023-05-01T11:39:49.611Z,19.60
2023-05-01T11:40:49.612Z,19.58
2023-05-01T11:41:49.609Z,19.63
2023-05-01T11:42:49.577Z,19.68
2023-05-01T11:43:49.542Z,19.65
2023-05-01T11:44:49.581Z,19.58
2023-05-01T11:45:49.543Z,19.55
2023-05-01T11:46:49.556Z,19.51
2023-05-01T11:47:49.618Z,19.50
2023-05-01T11:48:49.561Z,19.51
2023-05-01T11:49:49.468Z,19.55
2023-05-01T11:50:50.492Z,19.57
2023-05-01T11:51:50.438Z,19.58
2023-05-01T11:52:49.539Z,19.65
2023-05-01T11:53:49.546Z,19.83
2023-05-01T11:54:49.441Z,19.90
2023-05-01T11:55:49.420Z,19.98
2023-05-01T11:56:49.463Z,19.98
2023-05-01T11:57:49.373Z,19.98
2023-05-01T11:58:49.405Z,19.94
2023-05-01T11:59:49.377Z,19.88
2023-05-01T12:00:49.389Z,19.72
2023-05-01T12:01:49.365Z,19.65
2023-05-01T12:02:49.395Z,19.61
2023-05-01T12:03:49.486Z,19.61
2023-05-01T12:04:50.327Z,19.63
2023-05-01T12:05:50.261Z,19.68
2023-05-01T12:06:49.537Z,19.70
2023-05-01T12:07:49.269Z,19.76
2023-05-01T12:08:49.313Z,19.90
2023-05-01T12:09:49.242Z,19.87
2023-05-01T12:10:49.287Z,19.88
2023-05-01T12:11:51.897Z,19.93
2023-05-01T12:12:50.200Z,19.91
2023-05-01T12:13:49.198Z,19.90
2023-05-01T12:14:49.237Z,19.90
2023-05-01T12:15:49.229Z,19.94
2023-05-01T12:16:49.270Z,20.03
2023-05-01T12:17:49.186Z,20.05
2023-05-01T12:18:49.173Z,20.08
2023-05-01T12:19:49.159Z,20.12
2023-05-01T12:20:49.153Z,20.15
2023-05-01T12:21:49.131Z,20.21
2023-05-01T12:22:49.133Z,20.24
2023-05-01T12:23:49.110Z,20.27
2023-05-01T12:24:49.106Z,20.33
2023-05-01T12:25:49.086Z,20.39
2023-05-01T12:26:49.087Z,20.43
2023-05-01T12:27:49.099Z,20.53
2023-05-01T12:28:49.072Z,20.64
2023-05-01T12:29:49.024Z,20.68
2023-05-01T12:30:49.184Z,20.74
2023-05-01T12:31:49.064Z,20.86
2023-05-01T12:32:49.070Z,20.91
2023-05-01T12:33:48.984Z,20.80
2023-05-01T12:34:49.022Z,20.59
2023-05-01T12:35:48.952Z,20.50
2023-05-01T12:36:48.991Z,20.35
2023-05-01T12:37:48.941Z,20.24
2023-05-01T12:38:49.909Z,20.16
2023-05-01T12:39:48.919Z,19.97
2023-05-01T12:40:48.926Z,19.86
2023-05-01T12:41:48.936Z,19.87
2023-05-01T12:42:48.894Z,19.93
2023-05-01T12:43:48.913Z,19.91
2023-05-01T12:44:48.924Z,19.84
2023-05-01T12:45:48.876Z,19.86
2023-05-01T12:46:48.900Z,19.90
2023-05-01T12:47:48.830Z,19.97
2023-05-01T12:48:48.858Z,20.05
2023-05-01T12:49:48.794Z,20.12
2023-05-01T12:50:49.907Z,20.15
2023-05-01T12:51:48.771Z,20.12
2023-05-01T12:52:48.794Z,20.12
2023-05-01T12:53:48.999Z,20.12
2023-05-01T12:54:48.752Z,20.15
2023-05-01T12:55:48.742Z,20.16
2023-05-01T12:56:48.733Z,20.25
2023-05-01T12:57:48.705Z,20.34
2023-05-01T12:58:48.744Z,20.38
2023-05-01T12:59:48.669Z,20.30
2023-05-01T13:00:48.696Z,20.23
2023-05-01T13:01:48.696Z,20.16
2023-05-01T13:02:48.787Z,20.16
2023-05-01T13:03:48.667Z,20.21
2023-05-01T13:04:48.657Z,20.24
2023-05-01T13:05:49.575Z,20.27
2023-05-01T13:06:49.640Z,20.21